Station: Ceduna

  Atmospheric Gas Attenuation - ITU Rec 676-11   --------------- db/100km ---------------
Date Time Temp RH % AH g/m3 Dew Point Wind Direction Speed kph Gust kph Barometer mB Rainfall Since 9am 24GHz 47GHz 76GHz 122GHz 134GHz 241GHz
21 19:00 13.8 79 9.41 10.2 32 48 1013.3 0 21.3 27.2 43.1 113.3 109.3 376.5
21 18:50 15.2 68 8.83 9.3 28 33 1012.9 0 20.0 25.8 40.0 105.0 99.6 342.9
21 18:40 15.2 66 8.57 8.9 35 44 1012.8 0 19.5 25.4 39.0 102.3 96.2 331.1
21 18:30 15.3 68 8.88 9.4 35 46 1012.8 0 20.1 25.9 40.1 105.4 100.1 344.7
21 18:20 15.5 66 8.72 9.2 39 48 1012.7 0 19.8 25.6 39.4 103.4 97.8 336.6
21 18:10 15.5 65 8.59 9 37 46 1012.5 0 19.5 25.4 38.9 102.0 96.1 330.6
21 18:00 15.6 68 9.04 9.7 33 44 1012.4 0 20.4 26.0 40.6 106.6 101.8 350.6
21 17:50 15.9 66 8.94 9.6 35 39 1012.3 0 20.2 25.8 40.1 105.2 100.1 344.7
21 17:40 15.9 61 8.26 8.4 33 41 1012 0 18.8 24.7 37.4 98.1 91.3 314.1
21 17:30 16.2 60 8.27 8.4 43 56 1011.9 0 18.8 24.6 37.3 97.8 91.1 313.3
21 17:20 16.7 57 8.1 8.1 41 52 1011.7 0 18.4 24.2 36.4 95.4 88.4 303.9
21 17:10 16.5 61 8.57 9 35 48 1011.6 0 19.4 25.0 38.3 100.5 94.5 325.3
21 17:00 16.2 64 8.83 9.4 37 50 1011.4 0 20.0 25.5 39.4 103.5 98.2 338.2
21 16:50 16.2 64 8.83 9.4 41 46 1011.2 0 20.0 25.5 39.4 103.5 98.2 338.1
21 16:40 16.6 59 8.33 8.6 39 46 1011.1 0 18.9 24.6 37.3 97.8 91.3 314.2
21 16:30 17 63 9.12 9.9 39 52 1010.8 0 20.5 25.7 40.1 105.4 100.9 347.6
21 16:20 17.2 62 9.08 9.9 44 54 1010.7 0 20.4 25.6 39.9 104.7 100.1 344.9
21 16:10 17.2 61 8.93 9.6 37 43 1010.5 0 20.1 25.3 39.3 103.2 98.2 338.1
21 16:00 17.2 58 8.49 8.9 44 63 1010.5 0 19.2 24.7 37.6 98.7 92.6 318.7
21 15:50 17 56 8.1 8.2 48 57 1010.4 0 18.4 24.1 36.2 95.0 88.0 302.4
21 15:40 17.3 58 8.54 9 44 54 1010.2 0 19.3 24.7 37.7 99.0 93.1 320.4
21 15:30 17.5 63 9.39 10.4 39 52 1010.3 0 21.1 26.0 40.9 107.5 103.7 357.4
21 15:20 18.3 56 8.76 9.4 43 54 1010.2 0 19.7 24.8 38.1 100.0 94.6 326.0
21 15:10 18.1 55 8.5 8.9 43 48 1010.2 0 19.2 24.4 37.2 97.6 91.7 315.5
21 15:00 17.3 58 8.54 9 41 59 1010.3 0 19.3 24.7 37.7 99.0 93.1 320.4
21 14:50 17.8 57 8.65 9.2 39 50 1010.3 0 19.5 24.7 37.9 99.5 93.9 323.2
21 14:40 18.3 61 9.54 10.7 44 52 1010.3 0 21.4 26.0 41.1 108.0 104.5 360.5
21 14:30 17.9 58 8.86 9.5 44 57 1010 0 19.9 25.0 38.7 101.5 96.4 332.0
21 14:20 18.9 55 8.91 9.7 44 59 1009.9 0 20.0 24.8 38.4 100.7 95.8 330.0
21 14:10 19.3 55 9.12 10 46 56 1009.7 0 20.4 25.0 39.0 102.3 97.9 337.4
21 14:00 18.1 58 8.96 9.7 41 57 1009.8 0 20.2 25.1 38.9 102.2 97.4 335.5
21 13:50 19.1 55 9.02 9.9 37 44 1009.7 0 20.2 24.9 38.7 101.6 96.9 333.9
21 13:40 19.3 49 8.13 8.3 52 59 1009.7 0 18.3 23.5 35.3 92.5 85.8 295.0
21 13:30 18.8 51 8.21 8.5 43 61 1009.6 0 18.5 23.8 35.8 93.9 87.3 300.2
21 13:20 19.2 51 8.41 8.8 48 56 1009.6 0 18.9 24.0 36.3 95.4 89.2 307.2
21 13:10 19.8 52 8.88 9.7 43 50 1009.5 0 19.9 24.5 37.8 99.3 94.3 324.9
21 13:00 19.1 52 8.52 9 37 50 1009.6 0 19.2 24.2 36.8 96.6 90.7 312.2
21 12:50 19.9 50 8.59 9.2 43 52 1009.7 0 19.3 24.1 36.7 96.3 90.6 312.1
21 12:40 19.1 48 7.87 7.8 37 46 1009.6 0 17.8 23.2 34.4 90.2 82.9 284.7
21 12:30 19.6 51 8.61 9.2 37 50 1009.6 0 19.3 24.2 36.9 96.8 91.2 314.1
21 12:20 19.3 50 8.29 8.6 39 50 1009.5 0 18.7 23.8 35.9 94.0 87.7 301.7
21 12:10 19.5 48 8.06 8.2 30 43 1009.6 0 18.2 23.4 34.9 91.6 84.7 291.3
21 12:00 19.2 53 8.74 9.4 39 50 1009.5 0 19.6 24.5 37.6 98.6 93.3 321.3
21 11:50 19.2 53 8.74 9.4 37 41 1009.6 0 19.6 24.5 37.6 98.6 93.3 321.3
21 11:40 19.2 53 8.74 9.4 33 39 1009.7 0 19.6 24.5 37.6 98.6 93.3 321.3
21 11:30 18.9 52 8.42 8.8 39 57 1009.7 0 19.0 24.1 36.5 95.8 89.7 308.8
21 11:20 18.6 52 8.28 8.6 43 48 1009.6 0 18.7 23.9 36.1 94.8 88.3 303.9
21 11:10 18.1 52 8.03 8.1 39 48 1009.6 0 18.2 23.7 35.4 92.9 85.8 295.1
21 11:00 18.3 52 8.13 8.3 35 50 1009.6 0 18.4 23.8 35.7 93.6 86.8 298.6
21 10:50 18.3 53 8.29 8.6 32 41 1009.6 0 18.7 24.0 36.3 95.2 88.8 305.5
21 10:40 17.7 54 8.15 8.3 39 48 1009.6 0 18.5 24.0 36.1 94.5 87.7 301.7
21 10:30 17.5 55 8.2 8.4 39 50 1009.6 0 18.6 24.1 36.3 95.3 88.6 304.6
21 10:20 18.2 51 7.93 7.9 37 43 1009.6 0 18.0 23.5 35.0 91.8 84.5 290.5
21 10:10 17.9 51 7.79 7.6 39 48 1009.5 0 17.7 23.4 34.6 90.7 83.1 285.6
21 10:00 17.6 51 7.65 7.4 35 57 1009.4 0 17.4 23.2 34.2 89.7 81.7 280.7
21 09:50 17.3 49 7.22 6.5 33 43 1009.5 0 16.5 22.7 32.8 85.9 76.9 263.6
21 09:40 17.3 48 7.07 6.2 33 39 1009.4 0 16.2 22.5 32.3 84.4 75.1 257.3
21 09:30 16.9 47 6.76 5.5 37 46 1009.4 0 15.5 22.1 31.3 81.8 71.8 245.7
21 09:20 16.5 48 6.74 5.5 41 46 1009.3 0 15.5 22.2 31.4 82.0 71.9 246.1
21 09:10 16.3 49 6.8 5.6 35 46 1009.1 0 15.7 22.3 31.7 82.8 72.8 249.2
21 09:00 16.1 50 6.85 5.7 33 46 1009 0 15.8 22.4 31.9 83.5 73.6 251.9
21 08:50 15.8 52 7 6 35 44 1008.8 0 16.1 22.7 32.6 85.2 75.6 259.1
21 08:40 15.5 49 6.48 4.8 30 33 1008.8 0 15.0 22.0 30.8 80.5 69.7 238.2
21 08:30 15.2 51 6.62 5.1 35 48 1008.7 0 15.3 22.3 31.4 82.2 71.6 244.9
21 08:20 15 51 6.54 5 32 41 1008.6 0 15.2 22.2 31.2 81.6 70.8 242.1
21 08:10 14.8 52 6.59 5.1 33 37 1008.5 0 15.3 22.3 31.5 82.3 71.6 244.8
21 08:00 14.5 51 6.34 4.5 30 43 1008.3 0 14.8 22.0 30.7 80.1 68.9 235.1
21 07:50 14.2 51 6.23 4.2 32 37 1008.2 0 14.5 22.0 30.4 79.3 67.8 231.4
21 07:40 13.9 50 5.99 3.7 28 41 1008.1 0 14.0 21.7 29.6 77.3 65.2 222.2
21 07:30 13.5 51 5.97 3.6 30 43 1007.9 0 14.0 21.7 29.7 77.5 65.3 222.4
21 07:20 13.2 50 5.74 3 30 39 1007.9 0 13.5 21.5 29.0 75.5 62.8 213.6
21 07:10 12.8 49 5.49 2.4 28 35 1007.8 0 13.0 21.2 28.2 73.5 60.1 204.2
21 07:00 12.8 47 5.26 1.8 28 41 1007.7 0 12.5 20.9 27.4 71.3 57.4 194.7
21 06:50 12.8 46 5.15 1.5 32 39 1007.6 0 12.3 20.7 27.0 70.3 56.1 190.2
21 06:40 12.7 46 5.12 1.4 26 35 1007.6 0 12.2 20.7 26.9 70.1 55.8 189.2
21 06:30 12.7 46 5.12 1.4 28 41 1007.6 0 12.2 20.7 26.9 70.1 55.8 189.2
21 06:20 12.4 46 5.03 1.1 30 35 1007.5 0 12.0 20.6 26.7 69.5 55.0 186.2
21 06:10 12 46 4.9 0.8 26 32 1007.4 0 11.8 20.5 26.4 68.6 53.8 181.7
21 06:00 11.2 49 4.97 0.9 20 28 1007.3 0 12.0 20.8 26.9 69.9 55.1 186.4
21 05:50 11 50 5.01 1 20 24 1007.2 0 12.0 20.9 27.1 70.5 55.7 188.5
21 05:40 10.6 54 5.27 1.7 19 24 1007.1 0 12.6 21.4 28.1 73.3 59.1 200.4
21 05:30 9.9 58 5.42 2 17 22 1007 0 13.0 21.7 28.9 75.5 61.5 208.5
21 05:20 9.7 60 5.53 2.3 17 17 1006.9 0 13.2 21.9 29.4 76.7 63.0 213.8
21 05:10 10 59 5.55 2.4 19 20 1006.9 0 13.2 21.9 29.4 76.6 63.0 213.8
21 04:50 10.1 60 5.68 2.7 24 28 1006.8 0 13.5 22.1 29.8 77.8 64.5 219.2
21 04:40 9.9 63 5.88 3.2 22 28 1006.7 0 13.9 22.4 30.6 80.0 67.1 228.4
21 04:30 9.5 67 6.1 3.7 22 28 1006.5 0 14.4 22.9 31.6 82.7 70.2 239.2
21 04:20 9.2 70 6.25 4 22 28 1006.5 0 14.8 23.2 32.3 84.5 72.4 246.8
21 04:10 9.2 71 6.34 4.2 20 22 1006.5 0 15.0 23.3 32.7 85.4 73.5 250.9
21 04:00 9.4 71 6.42 4.4 24 33 1006.5 0 15.1 23.4 32.9 86.1 74.4 253.8
21 03:50 9.3 73 6.56 4.7 22 28 1006.6 0 15.4 23.6 33.5 87.6 76.3 260.5
21 03:40 9.2 74 6.61 4.8 20 28 1006.7 0 15.5 23.7 33.7 88.3 77.0 263.1
21 03:30 9 77 6.79 5.2 20 28 1006.8 0 15.9 24.1 34.5 90.4 79.6 272.1
21 03:20 8.7 79 6.83 5.3 17 20 1006.9 0 16.0 24.2 34.8 91.2 80.4 275.0
21 03:10 8 82 6.78 5.1 15 17 1007 0 15.9 24.3 34.9 91.5 80.5 275.1
21 03:00 7.8 84 6.86 5.3 17 19 1007.1 0 16.1 24.5 35.3 92.6 81.8 279.6
21 02:50 7.6 86 6.93 5.4 13 15 1007.3 0 16.3 24.7 35.7 93.6 83.0 283.6
21 02:40 7.3 87 6.88 5.3 13 15 1007.4 0 16.2 24.7 35.7 93.4 82.6 282.4
21 02:30 7.1 88 6.87 5.3 11 15 1007.5 0 16.2 24.8 35.7 93.6 82.7 282.7
21 02:20 6.9 89 6.85 5.2 11 15 1007.6 0 16.1 24.8 35.7 93.6 82.6 282.5

Last Refresh: 21-Sep-2020 19:11:24

Most of the information presented on this site is sourced from the Bureau of Meteorology.  Copyright in all material sourced from the Bureau of Meteorology resides with the Commonwealth of Australia.